Montauk, New York
Current Conditions -  °F | °C
As of 12:56 AM on Sunday 26 Oct 2014 (Local Time) from KGON Reporting Station
Scattered Clouds Scattered Clouds  
Wind Chill: 60°   Ceiling: Unl
Heat Index: 60°   Visibility: 10mi
Dew Point: 51°   Wind: 12mph
Humidity: 72%   Direction: 260°W
Pressure: 29.51"   Gusts: NA
Location:  41.04°N, 71.95°W
Report Text: KGON 260456Z AUTO 26010KT 10SM SCT095 16/11 A2951 RMK AO2 SLP994 T01560106 401720033
Loading
Personal Weather Stations






























Interactive Weather Map New forecast layout! Learn more

10-Day Weather Forecast

Advertisements
Track Severe Weather on mobile